<?xml version="1.0" encoding="UTF-8" standalone="no" ?>
<gpx xmlns="http://www.topografix.com/GPX/1/1" xmlns:xsi="http://www.w3.org/2001/XMLSchema-instance" xsi:schemaLocation="http://www.topografix.com/GPX/1/1 http://www.topografix.com/GPX/1/1/gpx.xsd" version="1.1" creator="VisuGPX - https://www.visugpx.com">
  <metadata>
    <name>Boucle au départ de la Pointe de la Vieille Chapelle</name>
  </metadata>
  <wpt lat="47.70465" lon="-3.16511">
    <ele>2.6</ele>
    <name><![CDATA[Parking Pointe de Kérantréh]]></name>
  </wpt>
  <wpt lat="47.70838" lon="-3.17497">
    <ele>10</ele>
    <name><![CDATA[Entrée de Kerdavid, à droite]]></name>
  </wpt>
  <wpt lat="47.70925" lon="-3.17499">
    <ele>10</ele>
    <name><![CDATA[Chapelle Notre Dame de Pitié]]></name>
  </wpt>
  <wpt lat="47.71004" lon="-3.17742">
    <ele>2</ele>
    <name><![CDATA[Route goudronnée, à droite]]></name>
  </wpt>
  <wpt lat="47.71641" lon="-3.19042">
    <ele>16</ele>
    <name><![CDATA[Mare du Bois des Landes de Folive]]></name>
  </wpt>
  <wpt lat="47.7182" lon="-3.1946">
    <ele>7</ele>
    <name><![CDATA[À gauche sur route]]></name>
  </wpt>
  <wpt lat="47.70969" lon="-3.1997">
    <ele>5</ele>
    <name><![CDATA[Deuxième pont de bois]]></name>
  </wpt>
  <wpt lat="47.70887" lon="-3.20058">
    <ele>9</ele>
    <name><![CDATA[Cinquième pont de bois, sente à gauche]]></name>
  </wpt>
  <wpt lat="47.70387" lon="-3.19548">
    <ele>2</ele>
    <name><![CDATA[Moulin de Berringue ( rive droite )]]></name>
  </wpt>
  <wpt lat="47.70368" lon="-3.19517">
    <ele>2</ele>
    <name><![CDATA[Moulin de Berringue, à gauche sur la passerelle]]></name>
  </wpt>
  <wpt lat="47.70348" lon="-3.19209">
    <ele>2</ele>
    <name><![CDATA[Petit chemin à gauche]]></name>
  </wpt>
  <wpt lat="47.70728" lon="-3.17666">
    <ele>3</ele>
    <name><![CDATA[Plage de Dré Hen]]></name>
  </wpt>
  <wpt lat="47.70462" lon="-3.16511">
    <ele>2.5</ele>
    <name><![CDATA[Parking Pointe de Kérantréh]]></name>
  </wpt>
  <trk>
    <name><![CDATA[Boucle au départ de la Pointe de la Vieille Chapelle]]></name>
    <trkseg>
      <trkpt lat="47.70465" lon="-3.16511">
        <ele>2.6</ele>
        <time>2021-03-19T12:44:36+01:00</time>
      </trkpt>
      <trkpt lat="47.70465" lon="-3.16667">
        <ele>5</ele>
        <time>2021-03-19T12:44:41+01:00</time>
      </trkpt>
      <trkpt lat="47.7063" lon="-3.17234">
        <ele>9</ele>
        <time>2021-03-19T12:44:46+01:00</time>
      </trkpt>
      <trkpt lat="47.70717" lon="-3.17203">
        <ele>10</ele>
        <time>2021-03-19T12:44:51+01:00</time>
      </trkpt>
      <trkpt lat="47.70792" lon="-3.17177">
        <ele>10</ele>
        <time>2021-03-19T12:44:56+01:00</time>
      </trkpt>
      <trkpt lat="47.70857" lon="-3.17156">
        <ele>9</ele>
        <time>2021-03-19T12:45:01+01:00</time>
      </trkpt>
      <trkpt lat="47.70924" lon="-3.17135">
        <ele>7</ele>
        <time>2021-03-19T12:45:06+01:00</time>
      </trkpt>
      <trkpt lat="47.70941" lon="-3.17132">
        <ele>6</ele>
        <time>2021-03-19T12:45:11+01:00</time>
      </trkpt>
      <trkpt lat="47.7093" lon="-3.1715">
        <ele>7</ele>
        <time>2021-03-19T12:45:16+01:00</time>
      </trkpt>
      <trkpt lat="47.70925" lon="-3.17181">
        <ele>6</ele>
        <time>2021-03-19T12:45:21+01:00</time>
      </trkpt>
      <trkpt lat="47.709" lon="-3.17277">
        <ele>4</ele>
        <time>2021-03-19T12:45:26+01:00</time>
      </trkpt>
      <trkpt lat="47.70872" lon="-3.17375">
        <ele>6</ele>
        <time>2021-03-19T12:45:31+01:00</time>
      </trkpt>
      <trkpt lat="47.70838" lon="-3.17497">
        <ele>10</ele>
        <time>2021-03-19T12:45:36+01:00</time>
      </trkpt>
      <trkpt lat="47.70871" lon="-3.17491">
        <ele>10</ele>
        <time>2021-03-19T12:45:41+01:00</time>
      </trkpt>
      <trkpt lat="47.70905" lon="-3.17494">
        <ele>11</ele>
        <time>2021-03-19T12:45:46+01:00</time>
      </trkpt>
      <trkpt lat="47.70925" lon="-3.17499">
        <ele>10</ele>
        <time>2021-03-19T12:45:51+01:00</time>
      </trkpt>
      <trkpt lat="47.70947" lon="-3.17507">
        <ele>9</ele>
        <time>2021-03-19T12:45:56+01:00</time>
      </trkpt>
      <trkpt lat="47.70958" lon="-3.17525">
        <ele>8</ele>
        <time>2021-03-19T12:46:01+01:00</time>
      </trkpt>
      <trkpt lat="47.70974" lon="-3.17584">
        <ele>5</ele>
        <time>2021-03-19T12:46:06+01:00</time>
      </trkpt>
      <trkpt lat="47.70978" lon="-3.17507">
        <ele>7</ele>
        <time>2021-03-19T12:46:11+01:00</time>
      </trkpt>
      <trkpt lat="47.70979" lon="-3.17461">
        <ele>7</ele>
        <time>2021-03-19T12:46:16+01:00</time>
      </trkpt>
      <trkpt lat="47.70982" lon="-3.17429">
        <ele>7</ele>
        <time>2021-03-19T12:46:21+01:00</time>
      </trkpt>
      <trkpt lat="47.70999" lon="-3.17422">
        <ele>6</ele>
        <time>2021-03-19T12:46:26+01:00</time>
      </trkpt>
      <trkpt lat="47.71046" lon="-3.17416">
        <ele>5</ele>
        <time>2021-03-19T12:46:31+01:00</time>
      </trkpt>
      <trkpt lat="47.71074" lon="-3.17412">
        <ele>4</ele>
        <time>2021-03-19T12:46:36+01:00</time>
      </trkpt>
      <trkpt lat="47.71115" lon="-3.1741">
        <ele>4</ele>
        <time>2021-03-19T12:46:41+01:00</time>
      </trkpt>
      <trkpt lat="47.71178" lon="-3.17359">
        <ele>3</ele>
        <time>2021-03-19T12:46:46+01:00</time>
      </trkpt>
      <trkpt lat="47.71241" lon="-3.17311">
        <ele>5</ele>
        <time>2021-03-19T12:46:51+01:00</time>
      </trkpt>
      <trkpt lat="47.71252" lon="-3.17366">
        <ele>3</ele>
        <time>2021-03-19T12:46:56+01:00</time>
      </trkpt>
      <trkpt lat="47.71226" lon="-3.17407">
        <ele>1</ele>
        <time>2021-03-19T12:47:01+01:00</time>
      </trkpt>
      <trkpt lat="47.71196" lon="-3.17446">
        <ele>2</ele>
        <time>2021-03-19T12:47:06+01:00</time>
      </trkpt>
      <trkpt lat="47.71185" lon="-3.1747">
        <ele>2</ele>
        <time>2021-03-19T12:47:11+01:00</time>
      </trkpt>
      <trkpt lat="47.71184" lon="-3.1749">
        <ele>2</ele>
        <time>2021-03-19T12:47:16+01:00</time>
      </trkpt>
      <trkpt lat="47.71189" lon="-3.17513">
        <ele>1</ele>
        <time>2021-03-19T12:47:21+01:00</time>
      </trkpt>
      <trkpt lat="47.71197" lon="-3.17527">
        <ele>1</ele>
        <time>2021-03-19T12:47:26+01:00</time>
      </trkpt>
      <trkpt lat="47.71209" lon="-3.17537">
        <ele>1</ele>
        <time>2021-03-19T12:47:31+01:00</time>
      </trkpt>
      <trkpt lat="47.7123" lon="-3.17548">
        <ele>1</ele>
        <time>2021-03-19T12:47:36+01:00</time>
      </trkpt>
      <trkpt lat="47.71241" lon="-3.17566">
        <ele>1</ele>
        <time>2021-03-19T12:47:41+01:00</time>
      </trkpt>
      <trkpt lat="47.71253" lon="-3.17586">
        <ele>1</ele>
        <time>2021-03-19T12:47:46+01:00</time>
      </trkpt>
      <trkpt lat="47.71249" lon="-3.17611">
        <ele>1</ele>
        <time>2021-03-19T12:47:51+01:00</time>
      </trkpt>
      <trkpt lat="47.71244" lon="-3.17642">
        <ele>1</ele>
        <time>2021-03-19T12:47:56+01:00</time>
      </trkpt>
      <trkpt lat="47.71235" lon="-3.17681">
        <ele>1</ele>
        <time>2021-03-19T12:48:01+01:00</time>
      </trkpt>
      <trkpt lat="47.71217" lon="-3.17708">
        <ele>1</ele>
        <time>2021-03-19T12:48:06+01:00</time>
      </trkpt>
      <trkpt lat="47.71198" lon="-3.17723">
        <ele>1</ele>
        <time>2021-03-19T12:48:11+01:00</time>
      </trkpt>
      <trkpt lat="47.71168" lon="-3.17731">
        <ele>2</ele>
        <time>2021-03-19T12:48:16+01:00</time>
      </trkpt>
      <trkpt lat="47.71129" lon="-3.17725">
        <ele>2</ele>
        <time>2021-03-19T12:48:21+01:00</time>
      </trkpt>
      <trkpt lat="47.71077" lon="-3.17727">
        <ele>1</ele>
        <time>2021-03-19T12:48:26+01:00</time>
      </trkpt>
      <trkpt lat="47.71038" lon="-3.17735">
        <ele>2</ele>
        <time>2021-03-19T12:48:31+01:00</time>
      </trkpt>
      <trkpt lat="47.71004" lon="-3.17742">
        <ele>2</ele>
        <time>2021-03-19T12:48:36+01:00</time>
      </trkpt>
      <trkpt lat="47.71001" lon="-3.17814">
        <ele>2</ele>
        <time>2021-03-19T12:48:41+01:00</time>
      </trkpt>
      <trkpt lat="47.71004" lon="-3.17859">
        <ele>3</ele>
        <time>2021-03-19T12:48:46+01:00</time>
      </trkpt>
      <trkpt lat="47.71034" lon="-3.17854">
        <ele>4</ele>
        <time>2021-03-19T12:48:51+01:00</time>
      </trkpt>
      <trkpt lat="47.71066" lon="-3.17851">
        <ele>4</ele>
        <time>2021-03-19T12:48:56+01:00</time>
      </trkpt>
      <trkpt lat="47.71097" lon="-3.17839">
        <ele>4</ele>
        <time>2021-03-19T12:49:01+01:00</time>
      </trkpt>
      <trkpt lat="47.71129" lon="-3.17837">
        <ele>4</ele>
        <time>2021-03-19T12:49:06+01:00</time>
      </trkpt>
      <trkpt lat="47.71156" lon="-3.1783">
        <ele>4</ele>
        <time>2021-03-19T12:49:11+01:00</time>
      </trkpt>
      <trkpt lat="47.71178" lon="-3.17832">
        <ele>4</ele>
        <time>2021-03-19T12:49:16+01:00</time>
      </trkpt>
      <trkpt lat="47.71195" lon="-3.17847">
        <ele>4</ele>
        <time>2021-03-19T12:49:21+01:00</time>
      </trkpt>
      <trkpt lat="47.71223" lon="-3.17861">
        <ele>4</ele>
        <time>2021-03-19T12:49:26+01:00</time>
      </trkpt>
      <trkpt lat="47.71264" lon="-3.17912">
        <ele>5</ele>
        <time>2021-03-19T12:49:31+01:00</time>
      </trkpt>
      <trkpt lat="47.71296" lon="-3.17939">
        <ele>5</ele>
        <time>2021-03-19T12:49:36+01:00</time>
      </trkpt>
      <trkpt lat="47.71317" lon="-3.17975">
        <ele>5</ele>
        <time>2021-03-19T12:49:41+01:00</time>
      </trkpt>
      <trkpt lat="47.7132" lon="-3.18045">
        <ele>6</ele>
        <time>2021-03-19T12:49:46+01:00</time>
      </trkpt>
      <trkpt lat="47.71323" lon="-3.18108">
        <ele>6</ele>
        <time>2021-03-19T12:49:51+01:00</time>
      </trkpt>
      <trkpt lat="47.71328" lon="-3.18206">
        <ele>5</ele>
        <time>2021-03-19T12:49:56+01:00</time>
      </trkpt>
      <trkpt lat="47.71365" lon="-3.18229">
        <ele>4</ele>
        <time>2021-03-19T12:50:01+01:00</time>
      </trkpt>
      <trkpt lat="47.71413" lon="-3.18291">
        <ele>3</ele>
        <time>2021-03-19T12:50:06+01:00</time>
      </trkpt>
      <trkpt lat="47.71426" lon="-3.18399">
        <ele>3</ele>
        <time>2021-03-19T12:50:11+01:00</time>
      </trkpt>
      <trkpt lat="47.71438" lon="-3.18513">
        <ele>7</ele>
        <time>2021-03-19T12:50:16+01:00</time>
      </trkpt>
      <trkpt lat="47.7149" lon="-3.18659">
        <ele>12</ele>
        <time>2021-03-19T12:50:21+01:00</time>
      </trkpt>
      <trkpt lat="47.71514" lon="-3.18711">
        <ele>12</ele>
        <time>2021-03-19T12:50:26+01:00</time>
      </trkpt>
      <trkpt lat="47.71539" lon="-3.18782">
        <ele>11</ele>
        <time>2021-03-19T12:50:31+01:00</time>
      </trkpt>
      <trkpt lat="47.71564" lon="-3.18856">
        <ele>11</ele>
        <time>2021-03-19T12:50:36+01:00</time>
      </trkpt>
      <trkpt lat="47.7158" lon="-3.18897">
        <ele>13</ele>
        <time>2021-03-19T12:50:41+01:00</time>
      </trkpt>
      <trkpt lat="47.71598" lon="-3.18912">
        <ele>15</ele>
        <time>2021-03-19T12:50:46+01:00</time>
      </trkpt>
      <trkpt lat="47.71607" lon="-3.18939">
        <ele>16</ele>
        <time>2021-03-19T12:50:51+01:00</time>
      </trkpt>
      <trkpt lat="47.71615" lon="-3.18978">
        <ele>17</ele>
        <time>2021-03-19T12:50:56+01:00</time>
      </trkpt>
      <trkpt lat="47.71634" lon="-3.19019">
        <ele>17</ele>
        <time>2021-03-19T12:51:01+01:00</time>
      </trkpt>
      <trkpt lat="47.71641" lon="-3.19042">
        <ele>16</ele>
        <time>2021-03-19T12:51:06+01:00</time>
      </trkpt>
      <trkpt lat="47.71651" lon="-3.19072">
        <ele>15</ele>
        <time>2021-03-19T12:51:11+01:00</time>
      </trkpt>
      <trkpt lat="47.71679" lon="-3.19088">
        <ele>15</ele>
        <time>2021-03-19T12:51:16+01:00</time>
      </trkpt>
      <trkpt lat="47.71691" lon="-3.19088">
        <ele>16</ele>
        <time>2021-03-19T12:51:21+01:00</time>
      </trkpt>
      <trkpt lat="47.71704" lon="-3.1908">
        <ele>16</ele>
        <time>2021-03-19T12:51:26+01:00</time>
      </trkpt>
      <trkpt lat="47.7172" lon="-3.191">
        <ele>16</ele>
        <time>2021-03-19T12:51:31+01:00</time>
      </trkpt>
      <trkpt lat="47.7173" lon="-3.19112">
        <ele>16</ele>
        <time>2021-03-19T12:51:36+01:00</time>
      </trkpt>
      <trkpt lat="47.71772" lon="-3.19098">
        <ele>16</ele>
        <time>2021-03-19T12:51:41+01:00</time>
      </trkpt>
      <trkpt lat="47.71785" lon="-3.19127">
        <ele>14</ele>
        <time>2021-03-19T12:51:46+01:00</time>
      </trkpt>
      <trkpt lat="47.71793" lon="-3.19145">
        <ele>13</ele>
        <time>2021-03-19T12:51:51+01:00</time>
      </trkpt>
      <trkpt lat="47.71802" lon="-3.19175">
        <ele>11</ele>
        <time>2021-03-19T12:51:56+01:00</time>
      </trkpt>
      <trkpt lat="47.71799" lon="-3.19236">
        <ele>9</ele>
        <time>2021-03-19T12:52:01+01:00</time>
      </trkpt>
      <trkpt lat="47.71792" lon="-3.19285">
        <ele>8</ele>
        <time>2021-03-19T12:52:06+01:00</time>
      </trkpt>
      <trkpt lat="47.71798" lon="-3.19312">
        <ele>7</ele>
        <time>2021-03-19T12:52:11+01:00</time>
      </trkpt>
      <trkpt lat="47.71817" lon="-3.19347">
        <ele>7</ele>
        <time>2021-03-19T12:52:16+01:00</time>
      </trkpt>
      <trkpt lat="47.71817" lon="-3.19371">
        <ele>7</ele>
        <time>2021-03-19T12:52:21+01:00</time>
      </trkpt>
      <trkpt lat="47.71816" lon="-3.19391">
        <ele>7</ele>
        <time>2021-03-19T12:52:26+01:00</time>
      </trkpt>
      <trkpt lat="47.71816" lon="-3.1941">
        <ele>7</ele>
        <time>2021-03-19T12:52:31+01:00</time>
      </trkpt>
      <trkpt lat="47.71818" lon="-3.19434">
        <ele>7</ele>
        <time>2021-03-19T12:52:36+01:00</time>
      </trkpt>
      <trkpt lat="47.7182" lon="-3.1946">
        <ele>7</ele>
        <time>2021-03-19T12:52:41+01:00</time>
      </trkpt>
      <trkpt lat="47.71754" lon="-3.19444">
        <ele>5</ele>
        <time>2021-03-19T12:52:46+01:00</time>
      </trkpt>
      <trkpt lat="47.71692" lon="-3.19428">
        <ele>5</ele>
        <time>2021-03-19T12:52:51+01:00</time>
      </trkpt>
      <trkpt lat="47.71629" lon="-3.19418">
        <ele>5</ele>
        <time>2021-03-19T12:52:56+01:00</time>
      </trkpt>
      <trkpt lat="47.71579" lon="-3.19406">
        <ele>5</ele>
        <time>2021-03-19T12:53:01+01:00</time>
      </trkpt>
      <trkpt lat="47.71522" lon="-3.19397">
        <ele>6</ele>
        <time>2021-03-19T12:53:06+01:00</time>
      </trkpt>
      <trkpt lat="47.7154" lon="-3.19484">
        <ele>5</ele>
        <time>2021-03-19T12:53:11+01:00</time>
      </trkpt>
      <trkpt lat="47.71523" lon="-3.19495">
        <ele>5</ele>
        <time>2021-03-19T12:53:16+01:00</time>
      </trkpt>
      <trkpt lat="47.7149" lon="-3.19495">
        <ele>6</ele>
        <time>2021-03-19T12:53:21+01:00</time>
      </trkpt>
      <trkpt lat="47.71458" lon="-3.19497">
        <ele>8</ele>
        <time>2021-03-19T12:53:26+01:00</time>
      </trkpt>
      <trkpt lat="47.71426" lon="-3.19497">
        <ele>9</ele>
        <time>2021-03-19T12:53:31+01:00</time>
      </trkpt>
      <trkpt lat="47.71393" lon="-3.19491">
        <ele>7</ele>
        <time>2021-03-19T12:53:36+01:00</time>
      </trkpt>
      <trkpt lat="47.71361" lon="-3.1948">
        <ele>5</ele>
        <time>2021-03-19T12:53:41+01:00</time>
      </trkpt>
      <trkpt lat="47.7133" lon="-3.19471">
        <ele>4</ele>
        <time>2021-03-19T12:53:46+01:00</time>
      </trkpt>
      <trkpt lat="47.71299" lon="-3.1946">
        <ele>3</ele>
        <time>2021-03-19T12:53:51+01:00</time>
      </trkpt>
      <trkpt lat="47.7126" lon="-3.19444">
        <ele>2</ele>
        <time>2021-03-19T12:53:56+01:00</time>
      </trkpt>
      <trkpt lat="47.71234" lon="-3.19637">
        <ele>2</ele>
        <time>2021-03-19T12:54:01+01:00</time>
      </trkpt>
      <trkpt lat="47.71211" lon="-3.19679">
        <ele>2</ele>
        <time>2021-03-19T12:54:06+01:00</time>
      </trkpt>
      <trkpt lat="47.71187" lon="-3.19711">
        <ele>2</ele>
        <time>2021-03-19T12:54:11+01:00</time>
      </trkpt>
      <trkpt lat="47.71161" lon="-3.19741">
        <ele>2</ele>
        <time>2021-03-19T12:54:16+01:00</time>
      </trkpt>
      <trkpt lat="47.71134" lon="-3.19765">
        <ele>3</ele>
        <time>2021-03-19T12:54:21+01:00</time>
      </trkpt>
      <trkpt lat="47.71104" lon="-3.19786">
        <ele>3</ele>
        <time>2021-03-19T12:54:26+01:00</time>
      </trkpt>
      <trkpt lat="47.71073" lon="-3.19808">
        <ele>4</ele>
        <time>2021-03-19T12:54:31+01:00</time>
      </trkpt>
      <trkpt lat="47.71043" lon="-3.19825">
        <ele>3</ele>
        <time>2021-03-19T12:54:36+01:00</time>
      </trkpt>
      <trkpt lat="47.71012" lon="-3.19843">
        <ele>3</ele>
        <time>2021-03-19T12:54:41+01:00</time>
      </trkpt>
      <trkpt lat="47.71" lon="-3.19853">
        <ele>2</ele>
        <time>2021-03-19T12:54:46+01:00</time>
      </trkpt>
      <trkpt lat="47.70989" lon="-3.19873">
        <ele>3</ele>
        <time>2021-03-19T12:54:51+01:00</time>
      </trkpt>
      <trkpt lat="47.70977" lon="-3.19921">
        <ele>4</ele>
        <time>2021-03-19T12:54:56+01:00</time>
      </trkpt>
      <trkpt lat="47.70969" lon="-3.1997">
        <ele>5</ele>
        <time>2021-03-19T12:55:01+01:00</time>
      </trkpt>
      <trkpt lat="47.70974" lon="-3.20039">
        <ele>6</ele>
        <time>2021-03-19T12:55:06+01:00</time>
      </trkpt>
      <trkpt lat="47.70953" lon="-3.20047">
        <ele>6</ele>
        <time>2021-03-19T12:55:11+01:00</time>
      </trkpt>
      <trkpt lat="47.70932" lon="-3.20051">
        <ele>6</ele>
        <time>2021-03-19T12:55:16+01:00</time>
      </trkpt>
      <trkpt lat="47.70898" lon="-3.2006">
        <ele>8</ele>
        <time>2021-03-19T12:55:21+01:00</time>
      </trkpt>
      <trkpt lat="47.70887" lon="-3.20058">
        <ele>9</ele>
        <time>2021-03-19T12:55:26+01:00</time>
      </trkpt>
      <trkpt lat="47.7084" lon="-3.19985">
        <ele>7</ele>
        <time>2021-03-19T12:55:31+01:00</time>
      </trkpt>
      <trkpt lat="47.70814" lon="-3.19914">
        <ele>6</ele>
        <time>2021-03-19T12:55:36+01:00</time>
      </trkpt>
      <trkpt lat="47.708" lon="-3.19872">
        <ele>5</ele>
        <time>2021-03-19T12:55:41+01:00</time>
      </trkpt>
      <trkpt lat="47.70818" lon="-3.19862">
        <ele>4</ele>
        <time>2021-03-19T12:55:46+01:00</time>
      </trkpt>
      <trkpt lat="47.70814" lon="-3.19833">
        <ele>3</ele>
        <time>2021-03-19T12:55:51+01:00</time>
      </trkpt>
      <trkpt lat="47.70786" lon="-3.19841">
        <ele>4</ele>
        <time>2021-03-19T12:55:56+01:00</time>
      </trkpt>
      <trkpt lat="47.70746" lon="-3.1986">
        <ele>6</ele>
        <time>2021-03-19T12:56:01+01:00</time>
      </trkpt>
      <trkpt lat="47.70729" lon="-3.19876">
        <ele>6</ele>
        <time>2021-03-19T12:56:06+01:00</time>
      </trkpt>
      <trkpt lat="47.7072" lon="-3.19895">
        <ele>6</ele>
        <time>2021-03-19T12:56:11+01:00</time>
      </trkpt>
      <trkpt lat="47.70718" lon="-3.19924">
        <ele>7</ele>
        <time>2021-03-19T12:56:16+01:00</time>
      </trkpt>
      <trkpt lat="47.70727" lon="-3.19959">
        <ele>8</ele>
        <time>2021-03-19T12:56:21+01:00</time>
      </trkpt>
      <trkpt lat="47.70741" lon="-3.1999">
        <ele>10</ele>
        <time>2021-03-19T12:56:26+01:00</time>
      </trkpt>
      <trkpt lat="47.70734" lon="-3.19998">
        <ele>10</ele>
        <time>2021-03-19T12:56:31+01:00</time>
      </trkpt>
      <trkpt lat="47.70721" lon="-3.20001">
        <ele>9</ele>
        <time>2021-03-19T12:56:36+01:00</time>
      </trkpt>
      <trkpt lat="47.70705" lon="-3.19998">
        <ele>9</ele>
        <time>2021-03-19T12:56:41+01:00</time>
      </trkpt>
      <trkpt lat="47.70689" lon="-3.19994">
        <ele>8</ele>
        <time>2021-03-19T12:56:46+01:00</time>
      </trkpt>
      <trkpt lat="47.70666" lon="-3.19949">
        <ele>6</ele>
        <time>2021-03-19T12:56:51+01:00</time>
      </trkpt>
      <trkpt lat="47.70656" lon="-3.19915">
        <ele>6</ele>
        <time>2021-03-19T12:56:56+01:00</time>
      </trkpt>
      <trkpt lat="47.70646" lon="-3.19894">
        <ele>6</ele>
        <time>2021-03-19T12:57:01+01:00</time>
      </trkpt>
      <trkpt lat="47.7063" lon="-3.1987">
        <ele>7</ele>
        <time>2021-03-19T12:57:06+01:00</time>
      </trkpt>
      <trkpt lat="47.706" lon="-3.19839">
        <ele>10</ele>
        <time>2021-03-19T12:57:11+01:00</time>
      </trkpt>
      <trkpt lat="47.70565" lon="-3.19789">
        <ele>10</ele>
        <time>2021-03-19T12:57:16+01:00</time>
      </trkpt>
      <trkpt lat="47.70547" lon="-3.19806">
        <ele>9</ele>
        <time>2021-03-19T12:57:21+01:00</time>
      </trkpt>
      <trkpt lat="47.70532" lon="-3.19838">
        <ele>8</ele>
        <time>2021-03-19T12:57:26+01:00</time>
      </trkpt>
      <trkpt lat="47.7052" lon="-3.19849">
        <ele>8</ele>
        <time>2021-03-19T12:57:31+01:00</time>
      </trkpt>
      <trkpt lat="47.70487" lon="-3.19839">
        <ele>7</ele>
        <time>2021-03-19T12:57:36+01:00</time>
      </trkpt>
      <trkpt lat="47.70456" lon="-3.19891">
        <ele>6</ele>
        <time>2021-03-19T12:57:41+01:00</time>
      </trkpt>
      <trkpt lat="47.70446" lon="-3.19892">
        <ele>6</ele>
        <time>2021-03-19T12:57:46+01:00</time>
      </trkpt>
      <trkpt lat="47.70439" lon="-3.19886">
        <ele>6</ele>
        <time>2021-03-19T12:57:51+01:00</time>
      </trkpt>
      <trkpt lat="47.7042" lon="-3.19894">
        <ele>6</ele>
        <time>2021-03-19T12:57:56+01:00</time>
      </trkpt>
      <trkpt lat="47.70416" lon="-3.19868">
        <ele>5</ele>
        <time>2021-03-19T12:58:01+01:00</time>
      </trkpt>
      <trkpt lat="47.70416" lon="-3.19811">
        <ele>6</ele>
        <time>2021-03-19T12:58:06+01:00</time>
      </trkpt>
      <trkpt lat="47.70446" lon="-3.19716">
        <ele>6</ele>
        <time>2021-03-19T12:58:11+01:00</time>
      </trkpt>
      <trkpt lat="47.70424" lon="-3.19632">
        <ele>5</ele>
        <time>2021-03-19T12:58:16+01:00</time>
      </trkpt>
      <trkpt lat="47.70387" lon="-3.19548">
        <ele>2</ele>
        <time>2021-03-19T12:58:21+01:00</time>
      </trkpt>
      <trkpt lat="47.70368" lon="-3.19517">
        <ele>2</ele>
        <time>2021-03-19T12:58:26+01:00</time>
      </trkpt>
      <trkpt lat="47.70407" lon="-3.19507">
        <ele>2</ele>
        <time>2021-03-19T12:58:31+01:00</time>
      </trkpt>
      <trkpt lat="47.70428" lon="-3.19505">
        <ele>2</ele>
        <time>2021-03-19T12:58:36+01:00</time>
      </trkpt>
      <trkpt lat="47.70471" lon="-3.19505">
        <ele>1</ele>
        <time>2021-03-19T12:58:41+01:00</time>
      </trkpt>
      <trkpt lat="47.70485" lon="-3.19501">
        <ele>2</ele>
        <time>2021-03-19T12:58:46+01:00</time>
      </trkpt>
      <trkpt lat="47.70487" lon="-3.19476">
        <ele>2</ele>
        <time>2021-03-19T12:58:51+01:00</time>
      </trkpt>
      <trkpt lat="47.70482" lon="-3.19402">
        <ele>4</ele>
        <time>2021-03-19T12:58:56+01:00</time>
      </trkpt>
      <trkpt lat="47.70462" lon="-3.19331">
        <ele>4</ele>
        <time>2021-03-19T12:59:01+01:00</time>
      </trkpt>
      <trkpt lat="47.70456" lon="-3.19297">
        <ele>4</ele>
        <time>2021-03-19T12:59:06+01:00</time>
      </trkpt>
      <trkpt lat="47.70458" lon="-3.19272">
        <ele>4</ele>
        <time>2021-03-19T12:59:11+01:00</time>
      </trkpt>
      <trkpt lat="47.70469" lon="-3.19252">
        <ele>4</ele>
        <time>2021-03-19T12:59:16+01:00</time>
      </trkpt>
      <trkpt lat="47.70469" lon="-3.19232">
        <ele>4</ele>
        <time>2021-03-19T12:59:21+01:00</time>
      </trkpt>
      <trkpt lat="47.70479" lon="-3.19213">
        <ele>4</ele>
        <time>2021-03-19T12:59:26+01:00</time>
      </trkpt>
      <trkpt lat="47.70489" lon="-3.19199">
        <ele>4</ele>
        <time>2021-03-19T12:59:31+01:00</time>
      </trkpt>
      <trkpt lat="47.70503" lon="-3.19185">
        <ele>5</ele>
        <time>2021-03-19T12:59:36+01:00</time>
      </trkpt>
      <trkpt lat="47.70512" lon="-3.19154">
        <ele>4</ele>
        <time>2021-03-19T12:59:41+01:00</time>
      </trkpt>
      <trkpt lat="47.70527" lon="-3.19144">
        <ele>5</ele>
        <time>2021-03-19T12:59:46+01:00</time>
      </trkpt>
      <trkpt lat="47.70543" lon="-3.19148">
        <ele>5</ele>
        <time>2021-03-19T12:59:51+01:00</time>
      </trkpt>
      <trkpt lat="47.70553" lon="-3.19133">
        <ele>6</ele>
        <time>2021-03-19T12:59:56+01:00</time>
      </trkpt>
      <trkpt lat="47.70552" lon="-3.19099">
        <ele>6</ele>
        <time>2021-03-19T13:00:01+01:00</time>
      </trkpt>
      <trkpt lat="47.70508" lon="-3.19106">
        <ele>4</ele>
        <time>2021-03-19T13:00:06+01:00</time>
      </trkpt>
      <trkpt lat="47.7048" lon="-3.19118">
        <ele>4</ele>
        <time>2021-03-19T13:00:11+01:00</time>
      </trkpt>
      <trkpt lat="47.70442" lon="-3.19141">
        <ele>3</ele>
        <time>2021-03-19T13:00:16+01:00</time>
      </trkpt>
      <trkpt lat="47.7041" lon="-3.19165">
        <ele>2</ele>
        <time>2021-03-19T13:00:21+01:00</time>
      </trkpt>
      <trkpt lat="47.70376" lon="-3.19191">
        <ele>2</ele>
        <time>2021-03-19T13:00:26+01:00</time>
      </trkpt>
      <trkpt lat="47.70348" lon="-3.19209">
        <ele>2</ele>
        <time>2021-03-19T13:00:31+01:00</time>
      </trkpt>
      <trkpt lat="47.70339" lon="-3.192">
        <ele>3</ele>
        <time>2021-03-19T13:00:36+01:00</time>
      </trkpt>
      <trkpt lat="47.70324" lon="-3.19193">
        <ele>2</ele>
        <time>2021-03-19T13:00:41+01:00</time>
      </trkpt>
      <trkpt lat="47.70298" lon="-3.19181">
        <ele>2</ele>
        <time>2021-03-19T13:00:46+01:00</time>
      </trkpt>
      <trkpt lat="47.70281" lon="-3.19168">
        <ele>1</ele>
        <time>2021-03-19T13:00:51+01:00</time>
      </trkpt>
      <trkpt lat="47.70278" lon="-3.19147">
        <ele>1</ele>
        <time>2021-03-19T13:00:56+01:00</time>
      </trkpt>
      <trkpt lat="47.70285" lon="-3.1911">
        <ele>1.8</ele>
        <time>2021-03-19T13:01:01+01:00</time>
      </trkpt>
      <trkpt lat="47.70297" lon="-3.19084">
        <ele>2.4</ele>
        <time>2021-03-19T13:01:06+01:00</time>
      </trkpt>
      <trkpt lat="47.70315" lon="-3.19075">
        <ele>2.8</ele>
        <time>2021-03-19T13:01:11+01:00</time>
      </trkpt>
      <trkpt lat="47.70334" lon="-3.19055">
        <ele>2.1</ele>
        <time>2021-03-19T13:01:16+01:00</time>
      </trkpt>
      <trkpt lat="47.70358" lon="-3.19026">
        <ele>3.5</ele>
        <time>2021-03-19T13:01:21+01:00</time>
      </trkpt>
      <trkpt lat="47.7038" lon="-3.19001">
        <ele>1</ele>
        <time>2021-03-19T13:01:26+01:00</time>
      </trkpt>
      <trkpt lat="47.70393" lon="-3.18997">
        <ele>1</ele>
        <time>2021-03-19T13:01:31+01:00</time>
      </trkpt>
      <trkpt lat="47.70404" lon="-3.18986">
        <ele>1</ele>
        <time>2021-03-19T13:01:36+01:00</time>
      </trkpt>
      <trkpt lat="47.70419" lon="-3.1896">
        <ele>2</ele>
        <time>2021-03-19T13:01:41+01:00</time>
      </trkpt>
      <trkpt lat="47.70415" lon="-3.18925">
        <ele>3</ele>
        <time>2021-03-19T13:01:46+01:00</time>
      </trkpt>
      <trkpt lat="47.70419" lon="-3.18867">
        <ele>3</ele>
        <time>2021-03-19T13:01:51+01:00</time>
      </trkpt>
      <trkpt lat="47.70405" lon="-3.18814">
        <ele>3</ele>
        <time>2021-03-19T13:01:56+01:00</time>
      </trkpt>
      <trkpt lat="47.7042" lon="-3.1879">
        <ele>4</ele>
        <time>2021-03-19T13:02:01+01:00</time>
      </trkpt>
      <trkpt lat="47.70437" lon="-3.1878">
        <ele>5</ele>
        <time>2021-03-19T13:02:06+01:00</time>
      </trkpt>
      <trkpt lat="47.70449" lon="-3.18784">
        <ele>5</ele>
        <time>2021-03-19T13:02:11+01:00</time>
      </trkpt>
      <trkpt lat="47.70465" lon="-3.1878">
        <ele>5</ele>
        <time>2021-03-19T13:02:16+01:00</time>
      </trkpt>
      <trkpt lat="47.70459" lon="-3.18769">
        <ele>5</ele>
        <time>2021-03-19T13:02:21+01:00</time>
      </trkpt>
      <trkpt lat="47.70461" lon="-3.1875">
        <ele>6</ele>
        <time>2021-03-19T13:02:26+01:00</time>
      </trkpt>
      <trkpt lat="47.70479" lon="-3.18729">
        <ele>6</ele>
        <time>2021-03-19T13:02:31+01:00</time>
      </trkpt>
      <trkpt lat="47.7048" lon="-3.1868">
        <ele>6</ele>
        <time>2021-03-19T13:02:36+01:00</time>
      </trkpt>
      <trkpt lat="47.70485" lon="-3.18611">
        <ele>4</ele>
        <time>2021-03-19T13:02:41+01:00</time>
      </trkpt>
      <trkpt lat="47.70493" lon="-3.18552">
        <ele>3</ele>
        <time>2021-03-19T13:02:46+01:00</time>
      </trkpt>
      <trkpt lat="47.70504" lon="-3.18485">
        <ele>3</ele>
        <time>2021-03-19T13:02:51+01:00</time>
      </trkpt>
      <trkpt lat="47.70511" lon="-3.18475">
        <ele>2</ele>
        <time>2021-03-19T13:02:56+01:00</time>
      </trkpt>
      <trkpt lat="47.70543" lon="-3.18396">
        <ele>2</ele>
        <time>2021-03-19T13:03:01+01:00</time>
      </trkpt>
      <trkpt lat="47.70549" lon="-3.18346">
        <ele>2</ele>
        <time>2021-03-19T13:03:06+01:00</time>
      </trkpt>
      <trkpt lat="47.70538" lon="-3.18326">
        <ele>2</ele>
        <time>2021-03-19T13:03:11+01:00</time>
      </trkpt>
      <trkpt lat="47.7054" lon="-3.18297">
        <ele>2</ele>
        <time>2021-03-19T13:03:16+01:00</time>
      </trkpt>
      <trkpt lat="47.70556" lon="-3.18282">
        <ele>2</ele>
        <time>2021-03-19T13:03:21+01:00</time>
      </trkpt>
      <trkpt lat="47.70549" lon="-3.18263">
        <ele>2</ele>
        <time>2021-03-19T13:03:26+01:00</time>
      </trkpt>
      <trkpt lat="47.70541" lon="-3.18236">
        <ele>2</ele>
        <time>2021-03-19T13:03:31+01:00</time>
      </trkpt>
      <trkpt lat="47.70536" lon="-3.18216">
        <ele>1</ele>
        <time>2021-03-19T13:03:36+01:00</time>
      </trkpt>
      <trkpt lat="47.70533" lon="-3.18172">
        <ele>2</ele>
        <time>2021-03-19T13:03:41+01:00</time>
      </trkpt>
      <trkpt lat="47.70529" lon="-3.18141">
        <ele>2</ele>
        <time>2021-03-19T13:03:46+01:00</time>
      </trkpt>
      <trkpt lat="47.70524" lon="-3.18129">
        <ele>3</ele>
        <time>2021-03-19T13:03:51+01:00</time>
      </trkpt>
      <trkpt lat="47.70509" lon="-3.18097">
        <ele>4</ele>
        <time>2021-03-19T13:03:56+01:00</time>
      </trkpt>
      <trkpt lat="47.70499" lon="-3.18082">
        <ele>4</ele>
        <time>2021-03-19T13:04:01+01:00</time>
      </trkpt>
      <trkpt lat="47.70487" lon="-3.18075">
        <ele>4</ele>
        <time>2021-03-19T13:04:06+01:00</time>
      </trkpt>
      <trkpt lat="47.70472" lon="-3.18071">
        <ele>3</ele>
        <time>2021-03-19T13:04:11+01:00</time>
      </trkpt>
      <trkpt lat="47.70461" lon="-3.18078">
        <ele>2</ele>
        <time>2021-03-19T13:04:16+01:00</time>
      </trkpt>
      <trkpt lat="47.70452" lon="-3.1809">
        <ele>2</ele>
        <time>2021-03-19T13:04:21+01:00</time>
      </trkpt>
      <trkpt lat="47.70437" lon="-3.18074">
        <ele>1</ele>
        <time>2021-03-19T13:04:26+01:00</time>
      </trkpt>
      <trkpt lat="47.7043" lon="-3.18024">
        <ele>3</ele>
        <time>2021-03-19T13:04:31+01:00</time>
      </trkpt>
      <trkpt lat="47.70438" lon="-3.17977">
        <ele>3</ele>
        <time>2021-03-19T13:04:36+01:00</time>
      </trkpt>
      <trkpt lat="47.70452" lon="-3.17936">
        <ele>2</ele>
        <time>2021-03-19T13:04:41+01:00</time>
      </trkpt>
      <trkpt lat="47.70463" lon="-3.17912">
        <ele>2</ele>
        <time>2021-03-19T13:04:46+01:00</time>
      </trkpt>
      <trkpt lat="47.70472" lon="-3.17896">
        <ele>2</ele>
        <time>2021-03-19T13:04:51+01:00</time>
      </trkpt>
      <trkpt lat="47.70534" lon="-3.17903">
        <ele>5</ele>
        <time>2021-03-19T13:04:56+01:00</time>
      </trkpt>
      <trkpt lat="47.70545" lon="-3.17887">
        <ele>5</ele>
        <time>2021-03-19T13:05:01+01:00</time>
      </trkpt>
      <trkpt lat="47.70565" lon="-3.17887">
        <ele>6</ele>
        <time>2021-03-19T13:05:06+01:00</time>
      </trkpt>
      <trkpt lat="47.70587" lon="-3.17856">
        <ele>7</ele>
        <time>2021-03-19T13:05:11+01:00</time>
      </trkpt>
      <trkpt lat="47.70603" lon="-3.17825">
        <ele>6</ele>
        <time>2021-03-19T13:05:16+01:00</time>
      </trkpt>
      <trkpt lat="47.70602" lon="-3.1778">
        <ele>3</ele>
        <time>2021-03-19T13:05:21+01:00</time>
      </trkpt>
      <trkpt lat="47.70621" lon="-3.17732">
        <ele>2</ele>
        <time>2021-03-19T13:05:26+01:00</time>
      </trkpt>
      <trkpt lat="47.70646" lon="-3.1771">
        <ele>2</ele>
        <time>2021-03-19T13:05:31+01:00</time>
      </trkpt>
      <trkpt lat="47.70728" lon="-3.17666">
        <ele>3</ele>
        <time>2021-03-19T13:05:36+01:00</time>
      </trkpt>
      <trkpt lat="47.70726" lon="-3.1763">
        <ele>3</ele>
        <time>2021-03-19T13:05:41+01:00</time>
      </trkpt>
      <trkpt lat="47.70729" lon="-3.17587">
        <ele>2</ele>
        <time>2021-03-19T13:05:46+01:00</time>
      </trkpt>
      <trkpt lat="47.70727" lon="-3.17552">
        <ele>2</ele>
        <time>2021-03-19T13:05:51+01:00</time>
      </trkpt>
      <trkpt lat="47.70713" lon="-3.17491">
        <ele>2</ele>
        <time>2021-03-19T13:05:56+01:00</time>
      </trkpt>
      <trkpt lat="47.70712" lon="-3.17481">
        <ele>2</ele>
        <time>2021-03-19T13:06:01+01:00</time>
      </trkpt>
      <trkpt lat="47.70715" lon="-3.17471">
        <ele>2</ele>
        <time>2021-03-19T13:06:06+01:00</time>
      </trkpt>
      <trkpt lat="47.70692" lon="-3.1745">
        <ele>2</ele>
        <time>2021-03-19T13:06:11+01:00</time>
      </trkpt>
      <trkpt lat="47.70669" lon="-3.17426">
        <ele>2</ele>
        <time>2021-03-19T13:06:16+01:00</time>
      </trkpt>
      <trkpt lat="47.70655" lon="-3.17406">
        <ele>2</ele>
        <time>2021-03-19T13:06:21+01:00</time>
      </trkpt>
      <trkpt lat="47.70649" lon="-3.1738">
        <ele>3</ele>
        <time>2021-03-19T13:06:26+01:00</time>
      </trkpt>
      <trkpt lat="47.70643" lon="-3.17355">
        <ele>4</ele>
        <time>2021-03-19T13:06:31+01:00</time>
      </trkpt>
      <trkpt lat="47.70637" lon="-3.17273">
        <ele>7</ele>
        <time>2021-03-19T13:06:36+01:00</time>
      </trkpt>
      <trkpt lat="47.70628" lon="-3.17234">
        <ele>9</ele>
        <time>2021-03-19T13:06:41+01:00</time>
      </trkpt>
      <trkpt lat="47.70588" lon="-3.1709">
        <ele>8</ele>
        <time>2021-03-19T13:06:46+01:00</time>
      </trkpt>
      <trkpt lat="47.70547" lon="-3.16956">
        <ele>7</ele>
        <time>2021-03-19T13:06:51+01:00</time>
      </trkpt>
      <trkpt lat="47.70508" lon="-3.16819">
        <ele>9</ele>
        <time>2021-03-19T13:06:56+01:00</time>
      </trkpt>
      <trkpt lat="47.70464" lon="-3.16668">
        <ele>5</ele>
        <time>2021-03-19T13:07:01+01:00</time>
      </trkpt>
      <trkpt lat="47.70462" lon="-3.16511">
        <ele>2.5</ele>
        <time>2021-03-19T13:07:06+01:00</time>
      </trkpt>
    </trkseg>
  </trk>
</gpx>